sensor_id;sensor_type;location;lat;lon;timestamp;pressure;altitude;pressure_sealevel;temperature;humidity
50550;BME280;36505;52.512;13.460;2023-01-26T00:01:08;101933.78;;;1.07;86.92
50550;BME280;36505;52.512;13.460;2023-01-26T00:03:34;101920.81;;;1.11;87.07
50550;BME280;36505;52.512;13.460;2023-01-26T00:06:03;101921.13;;;1.08;87.00
50550;BME280;36505;52.512;13.460;2023-01-26T00:08:29;101917.88;;;1.04;86.43
50550;BME280;36505;52.512;13.460;2023-01-26T00:10:55;101913.34;;;1.05;86.51
50550;BME280;36505;52.512;13.460;2023-01-26T00:13:20;101917.75;;;1.06;87.03
50550;BME280;36505;52.512;13.460;2023-01-26T00:15:47;101920.16;;;1.09;86.54
50550;BME280;36505;52.512;13.460;2023-01-26T00:18:12;101911.66;;;1.04;86.48
50550;BME280;36505;52.512;13.460;2023-01-26T00:20:38;101910.78;;;1.03;86.69
50550;BME280;36505;52.512;13.460;2023-01-26T00:23:03;101908.50;;;1.08;86.72
50550;BME280;36505;52.512;13.460;2023-01-26T00:25:29;101905.81;;;1.08;86.56
50550;BME280;36505;52.512;13.460;2023-01-26T00:27:55;101896.88;;;1.08;86.99
50550;BME280;36505;52.512;13.460;2023-01-26T00:30:21;101895.47;;;1.04;87.18
50550;BME280;36505;52.512;13.460;2023-01-26T00:32:47;101879.75;;;0.99;87.01
50550;BME280;36505;52.512;13.460;2023-01-26T00:35:12;101884.28;;;0.99;87.37
50550;BME280;36505;52.512;13.460;2023-01-26T00:37:40;101885.44;;;0.96;87.32
50550;BME280;36505;52.512;13.460;2023-01-26T00:40:06;101881.75;;;0.97;87.35
50550;BME280;36505;52.512;13.460;2023-01-26T00:42:32;101873.81;;;0.96;87.74
50550;BME280;36505;52.512;13.460;2023-01-26T00:44:57;101877.19;;;0.98;87.62
50550;BME280;36505;52.512;13.460;2023-01-26T00:47:25;101875.50;;;0.97;87.65
50550;BME280;36505;52.512;13.460;2023-01-26T00:49:50;101878.66;;;0.92;87.19
50550;BME280;36505;52.512;13.460;2023-01-26T00:52:16;101877.81;;;0.92;87.56
50550;BME280;36505;52.512;13.460;2023-01-26T00:54:41;101875.28;;;0.90;87.84
50550;BME280;36505;52.512;13.460;2023-01-26T00:57:07;101881.50;;;0.91;88.04
50550;BME280;36505;52.512;13.460;2023-01-26T00:59:32;101880.66;;;0.90;87.94
50550;BME280;36505;52.512;13.460;2023-01-26T01:01:58;101880.38;;;0.93;88.01
50550;BME280;36505;52.512;13.460;2023-01-26T01:04:27;101875.44;;;0.89;88.16
50550;BME280;36505;52.512;13.460;2023-01-26T01:06:54;101880.22;;;0.95;87.84
50550;BME280;36505;52.512;13.460;2023-01-26T01:09:19;101876.34;;;0.97;87.55
50550;BME280;36505;52.512;13.460;2023-01-26T01:11:45;101871.09;;;0.96;87.71
50550;BME280;36505;52.512;13.460;2023-01-26T01:14:14;101856.72;;;0.87;87.35
50550;BME280;36505;52.512;13.460;2023-01-26T01:16:40;101869.72;;;0.92;87.10
50550;BME280;36505;52.512;13.460;2023-01-26T01:19:07;101871.44;;;0.93;86.96
50550;BME280;36505;52.512;13.460;2023-01-26T01:21:32;101864.66;;;0.89;87.03
50550;BME280;36505;52.512;13.460;2023-01-26T01:23:58;101865.47;;;0.89;86.97
50550;BME280;36505;52.512;13.460;2023-01-26T01:26:24;101851.00;;;0.90;86.93
50550;BME280;36505;52.512;13.460;2023-01-26T01:28:52;101854.88;;;0.88;87.15
50550;BME280;36505;52.512;13.460;2023-01-26T01:31:19;101854.41;;;0.92;87.38
50550;BME280;36505;52.512;13.460;2023-01-26T01:33:44;101857.09;;;0.92;86.77
50550;BME280;36505;52.512;13.460;2023-01-26T01:36:12;101856.25;;;0.92;86.93
50550;BME280;36505;52.512;13.460;2023-01-26T01:38:38;101849.16;;;0.91;87.06
50550;BME280;36505;52.512;13.460;2023-01-26T01:41:04;101851.94;;;0.81;86.21
50550;BME280;36505;52.512;13.460;2023-01-26T01:43:29;101841.38;;;0.70;86.76
50550;BME280;36505;52.512;13.460;2023-01-26T01:45:55;101848.84;;;0.76;87.40
50550;BME280;36505;52.512;13.460;2023-01-26T01:48:28;101847.84;;;0.77;87.43
50550;BME280;36505;52.512;13.460;2023-01-26T01:50:58;101846.00;;;0.77;87.28
50550;BME280;36505;52.512;13.460;2023-01-26T01:53:32;101841.69;;;0.85;87.28
50550;BME280;36505;52.512;13.460;2023-01-26T01:56:02;101839.00;;;0.85;87.52
50550;BME280;36505;52.512;13.460;2023-01-26T01:58:30;101830.06;;;0.84;87.26
50550;BME280;36505;52.512;13.460;2023-01-26T02:00:57;101827.34;;;0.84;87.39
50550;BME280;36505;52.512;13.460;2023-01-26T02:03:24;101816.91;;;0.81;87.28
50550;BME280;36505;52.512;13.460;2023-01-26T02:05:56;101832.03;;;0.82;87.38
50550;BME280;36505;52.512;13.460;2023-01-26T02:08:28;101828.69;;;0.80;87.14
50550;BME280;36505;52.512;13.460;2023-01-26T02:10:58;101822.44;;;0.79;87.04
50550;BME280;36505;52.512;13.460;2023-01-26T02:13:27;101823.28;;;0.80;86.93
50550;BME280;36505;52.512;13.460;2023-01-26T02:15:53;101812.16;;;0.83;86.78
50550;BME280;36505;52.512;13.460;2023-01-26T02:18:19;101813.88;;;0.84;87.13
50550;BME280;36505;52.512;13.460;2023-01-26T02:28:26;101803.09;;;0.84;86.95
50550;BME280;36505;52.512;13.460;2023-01-26T02:30:53;101793.31;;;0.83;87.10
50550;BME280;36505;52.512;13.460;2023-01-26T02:33:30;101789.94;;;0.81;87.13
50550;BME280;36505;52.512;13.460;2023-01-26T02:35:56;101782.69;;;0.82;87.26
50550;BME280;36505;52.512;13.460;2023-01-26T02:38:24;101776.44;;;0.81;87.21
50550;BME280;36505;52.512;13.460;2023-01-26T02:41:06;101778.97;;;0.83;87.49
50550;BME280;36505;52.512;13.460;2023-01-26T02:43:32;101776.22;;;0.74;87.62
50550;BME280;36505;52.512;13.460;2023-01-26T02:45:57;101772.91;;;0.81;87.32
50550;BME280;36505;52.512;13.460;2023-01-26T02:48:23;101773.13;;;0.87;87.38
50550;BME280;36505;52.512;13.460;2023-01-26T02:51:07;101769.72;;;0.85;87.32
50550;BME280;36505;52.512;13.460;2023-01-26T02:53:32;101766.66;;;0.80;87.46
50550;BME280;36505;52.512;13.460;2023-01-26T02:55:58;101771.06;;;0.81;87.21
50550;BME280;36505;52.512;13.460;2023-01-26T02:58:23;101769.38;;;0.80;87.03
50550;BME280;36505;52.512;13.460;2023-01-26T03:00:49;101758.22;;;0.75;87.17
50550;BME280;36505;52.512;13.460;2023-01-26T03:03:18;101769.28;;;0.72;87.65
50550;BME280;36505;52.512;13.460;2023-01-26T03:05:45;101768.66;;;0.78;87.50
50550;BME280;36505;52.512;13.460;2023-01-26T03:08:11;101767.81;;;0.77;87.36
50550;BME280;36505;52.512;13.460;2023-01-26T03:10:36;101764.63;;;0.82;87.29
50550;BME280;36505;52.512;13.460;2023-01-26T03:13:02;101774.59;;;0.82;87.23
50550;BME280;36505;52.512;13.460;2023-01-26T03:15:28;101768.38;;;0.81;87.35
50550;BME280;36505;52.512;13.460;2023-01-26T03:18:18;101767.34;;;0.82;87.53
50550;BME280;36505;52.512;13.460;2023-01-26T03:21:05;101763.59;;;0.75;87.84
50550;BME280;36505;52.512;13.460;2023-01-26T03:23:49;101772.50;;;0.75;87.98
50550;BME280;36505;52.512;13.460;2023-01-26T03:26:33;101770.13;;;0.72;87.97
50550;BME280;36505;52.512;13.460;2023-01-26T03:29:18;101761.34;;;0.70;88.14
50550;BME280;36505;52.512;13.460;2023-01-26T03:31:43;101767.59;;;0.71;87.97
50550;BME280;36505;52.512;13.460;2023-01-26T03:34:09;101761.06;;;0.73;88.01
50550;BME280;36505;52.512;13.460;2023-01-26T03:36:34;101752.25;;;0.71;88.25
50550;BME280;36505;52.512;13.460;2023-01-26T03:39:02;101749.56;;;0.71;88.33
50550;BME280;36505;52.512;13.460;2023-01-26T03:41:28;101756.66;;;0.72;88.02
50550;BME280;36505;52.512;13.460;2023-01-26T03:44:12;101751.41;;;0.71;88.24
50550;BME280;36505;52.512;13.460;2023-01-26T03:46:56;101758.22;;;0.75;88.21
50550;BME280;36505;52.512;13.460;2023-01-26T03:49:40;101763.41;;;0.76;87.95
50550;BME280;36505;52.512;13.460;2023-01-26T03:52:24;101763.28;;;0.78;88.20
50550;BME280;36505;52.512;13.460;2023-01-26T03:55:07;101765.66;;;0.81;87.88
50550;BME280;36505;52.512;13.460;2023-01-26T03:57:51;101769.38;;;0.80;87.81
50550;BME280;36505;52.512;13.460;2023-01-26T04:00:17;101764.63;;;0.82;87.74
50550;BME280;36505;52.512;13.460;2023-01-26T04:02:42;101764.13;;;0.78;87.89
50550;BME280;36505;52.512;13.460;2023-01-26T04:05:26;101765.13;;;0.77;87.69
50550;BME280;36505;52.512;13.460;2023-01-26T04:08:10;101753.50;;;0.77;87.66
50550;BME280;36505;52.512;13.460;2023-01-26T04:10:55;101762.13;;;0.81;87.49
50550;BME280;36505;52.512;13.460;2023-01-26T04:13:22;101755.56;;;0.83;87.55
50550;BME280;36505;52.512;13.460;2023-01-26T04:16:08;101754.56;;;0.84;87.62
50550;BME280;36505;52.512;13.460;2023-01-26T04:18:53;101742.78;;;0.85;87.73
50550;BME280;36505;52.512;13.460;2023-01-26T04:21:37;101741.22;;;0.83;87.51
50550;BME280;36505;52.512;13.460;2023-01-26T04:24:04;101743.91;;;0.83;87.38
50550;BME280;36505;52.512;13.460;2023-01-26T04:26:38;101732.47;;;0.81;87.44
50550;BME280;36505;52.512;13.460;2023-01-26T04:29:06;101740.78;;;0.87;87.31
50550;BME280;36505;52.512;13.460;2023-01-26T04:31:32;101726.06;;;0.82;87.17
50550;BME280;36505;52.512;13.460;2023-01-26T04:33:59;101724.69;;;0.77;87.14
50550;BME280;36505;52.512;13.460;2023-01-26T04:36:24;101724.53;;;0.79;87.40
50550;BME280;36505;52.512;13.460;2023-01-26T04:38:50;101730.63;;;0.81;87.25
50550;BME280;36505;52.512;13.460;2023-01-26T04:41:15;101736.00;;;0.81;87.05
50550;BME280;36505;52.512;13.460;2023-01-26T04:43:41;101726.88;;;0.82;86.65
50550;BME280;36505;52.512;13.460;2023-01-26T04:46:07;101725.38;;;0.79;86.87
50550;BME280;36505;52.512;13.460;2023-01-26T04:48:33;101726.88;;;0.82;87.02
50550;BME280;36505;52.512;13.460;2023-01-26T04:51:02;101718.13;;;0.80;86.59
50550;BME280;36505;52.512;13.460;2023-01-26T04:53:28;101722.34;;;0.83;86.65
50550;BME280;36505;52.512;13.460;2023-01-26T04:55:54;101719.19;;;0.87;86.38
50550;BME280;36505;52.512;13.460;2023-01-26T04:58:20;101714.66;;;0.88;86.06
50550;BME280;36505;52.512;13.460;2023-01-26T05:00:50;101705.03;;;0.85;86.17
50550;BME280;36505;52.512;13.460;2023-01-26T05:03:16;101711.63;;;0.91;86.25
50550;BME280;36505;52.512;13.460;2023-01-26T05:05:42;101709.78;;;0.91;86.32
50550;BME280;36505;52.512;13.460;2023-01-26T05:08:07;101707.78;;;0.93;86.08
50550;BME280;36505;52.512;13.460;2023-01-26T05:10:32;101710.13;;;0.88;85.92
50550;BME280;36505;52.512;13.460;2023-01-26T05:12:58;101704.03;;;0.86;86.02
50550;BME280;36505;52.512;13.460;2023-01-26T05:15:24;101703.03;;;0.87;85.93
50550;BME280;36505;52.512;13.460;2023-01-26T05:17:49;101709.09;;;0.89;85.89
50550;BME280;36505;52.512;13.460;2023-01-26T05:20:15;101705.22;;;0.92;86.04
50550;BME280;36505;52.512;13.460;2023-01-26T05:22:41;101706.22;;;0.91;85.84
50550;BME280;36505;52.512;13.460;2023-01-26T05:25:06;101712.63;;;0.90;85.60
50550;BME280;36505;52.512;13.460;2023-01-26T05:27:32;101711.47;;;0.92;85.75
50550;BME280;36505;52.512;13.460;2023-01-26T05:29:57;101705.09;;;0.93;85.32
50550;BME280;36505;52.512;13.460;2023-01-26T05:32:29;101703.22;;;0.94;84.96
50550;BME280;36505;52.512;13.460;2023-01-26T05:34:55;101700.69;;;0.92;85.04
50550;BME280;36505;52.512;13.460;2023-01-26T05:37:23;101704.38;;;0.91;85.06
50550;BME280;36505;52.512;13.460;2023-01-26T05:39:48;101712.47;;;0.91;84.66
50550;BME280;36505;52.512;13.460;2023-01-26T05:42:14;101707.22;;;0.90;84.66
50550;BME280;36505;52.512;13.460;2023-01-26T05:44:39;101715.88;;;0.93;84.61
50550;BME280;36505;52.512;13.460;2023-01-26T05:47:05;101709.63;;;0.93;84.34
50550;BME280;36505;52.512;13.460;2023-01-26T05:49:30;101717.38;;;0.96;83.64
50550;BME280;36505;52.512;13.460;2023-01-26T05:51:56;101715.53;;;0.96;83.45
50550;BME280;36505;52.512;13.460;2023-01-26T05:54:22;101716.34;;;0.89;83.44
50550;BME280;36505;52.512;13.460;2023-01-26T05:56:47;101722.75;;;0.88;83.53
50550;BME280;36505;52.512;13.460;2023-01-26T05:59:13;101721.56;;;0.90;83.21
50550;BME280;36505;52.512;13.460;2023-01-26T06:01:39;101712.47;;;0.91;83.16
50550;BME280;36505;52.512;13.460;2023-01-26T06:04:04;101716.03;;;0.92;83.39
50550;BME280;36505;52.512;13.460;2023-01-26T06:06:30;101716.72;;;0.94;83.49
50550;BME280;36505;52.512;13.460;2023-01-26T06:08:56;101712.19;;;0.94;83.47
50550;BME280;36505;52.512;13.460;2023-01-26T06:11:22;101716.56;;;0.95;83.52
50550;BME280;36505;52.512;13.460;2023-01-26T06:13:47;101719.41;;;0.94;83.68
50550;BME280;36505;52.512;13.460;2023-01-26T06:16:13;101719.94;;;0.97;83.78
50550;BME280;36505;52.512;13.460;2023-01-26T06:18:38;101718.22;;;0.96;84.33
50550;BME280;36505;52.512;13.460;2023-01-26T06:21:04;101715.72;;;0.95;84.42
50550;BME280;36505;52.512;13.460;2023-01-26T06:23:29;101729.72;;;0.98;84.52
50550;BME280;36505;52.512;13.460;2023-01-26T06:25:59;101728.03;;;0.97;84.47
50550;BME280;36505;52.512;13.460;2023-01-26T06:28:25;101723.63;;;0.96;84.54
50550;BME280;36505;52.512;13.460;2023-01-26T06:30:50;101719.72;;;0.91;84.51
50550;BME280;36505;52.512;13.460;2023-01-26T06:33:16;101710.56;;;0.84;85.21
50550;BME280;36505;52.512;13.460;2023-01-26T06:35:41;101724.59;;;0.87;85.30
50550;BME280;36505;52.512;13.460;2023-01-26T06:38:06;101720.72;;;0.90;85.38
50550;BME280;36505;52.512;13.460;2023-01-26T06:40:32;101716.34;;;0.89;85.47
50550;BME280;36505;52.512;13.460;2023-01-26T06:42:57;101722.19;;;0.84;85.49
50550;BME280;36505;52.512;13.460;2023-01-26T06:45:22;101723.91;;;0.85;85.25
50550;BME280;36505;52.512;13.460;2023-01-26T06:47:49;101724.38;;;0.81;85.32
50550;BME280;36505;52.512;13.460;2023-01-26T06:50:18;101729.22;;;0.77;85.27
50550;BME280;36505;52.512;13.460;2023-01-26T06:52:46;101718.22;;;0.70;85.29
50550;BME280;36505;52.512;13.460;2023-01-26T06:55:17;101727.22;;;0.79;84.95
50550;BME280;36505;52.512;13.460;2023-01-26T06:57:44;101733.47;;;0.79;85.16
50550;BME280;36505;52.512;13.460;2023-01-26T07:00:11;101724.19;;;0.82;84.96
50550;BME280;36505;52.512;13.460;2023-01-26T07:02:37;101725.53;;;0.78;84.94
50550;BME280;36505;52.512;13.460;2023-01-26T07:05:03;101720.84;;;0.80;84.47
50550;BME280;36505;52.512;13.460;2023-01-26T07:07:28;101721.84;;;0.79;84.38
50550;BME280;36505;52.512;13.460;2023-01-26T07:09:54;101708.66;;;0.76;84.76
50550;BME280;36505;52.512;13.460;2023-01-26T07:12:19;101734.16;;;0.82;84.56
50550;BME280;36505;52.512;13.460;2023-01-26T07:14:45;101730.28;;;0.84;84.83
50550;BME280;36505;52.512;13.460;2023-01-26T07:17:10;101731.13;;;0.85;84.71
50550;BME280;36505;52.512;13.460;2023-01-26T07:19:36;101724.38;;;0.81;84.92
50550;BME280;36505;52.512;13.460;2023-01-26T07:22:01;101725.38;;;0.79;84.95
50550;BME280;36505;52.512;13.460;2023-01-26T07:24:27;101729.22;;;0.77;85.08
50550;BME280;36505;52.512;13.460;2023-01-26T07:26:53;101728.72;;;0.73;85.21
50550;BME280;36505;52.512;13.460;2023-01-26T07:29:18;101723.31;;;0.73;85.81
50550;BME280;36505;52.512;13.460;2023-01-26T07:31:44;101727.00;;;0.72;85.76
50550;BME280;36505;52.512;13.460;2023-01-26T07:34:10;101721.75;;;0.71;85.86
50550;BME280;36505;52.512;13.460;2023-01-26T07:36:36;101725.00;;;0.74;84.98
50550;BME280;36505;52.512;13.460;2023-01-26T07:39:01;101723.59;;;0.70;85.47
50550;BME280;36505;52.512;13.460;2023-01-26T07:41:26;101726.09;;;0.64;85.71
50550;BME280;36505;52.512;13.460;2023-01-26T07:43:52;101727.72;;;0.57;85.85
50550;BME280;36505;52.512;13.460;2023-01-26T07:46:17;101727.34;;;0.52;86.03
50550;BME280;36505;52.512;13.460;2023-01-26T07:48:42;101724.00;;;0.58;85.95
50550;BME280;36505;52.512;13.460;2023-01-26T07:51:08;101715.94;;;0.58;86.02
50550;BME280;36505;52.512;13.460;2023-01-26T07:53:35;101725.56;;;0.60;85.67
50550;BME280;36505;52.512;13.460;2023-01-26T07:56:07;101728.25;;;0.60;85.71
50550;BME280;36505;52.512;13.460;2023-01-26T07:58:33;101733.47;;;0.62;86.16
50550;BME280;36505;52.512;13.460;2023-01-26T08:01:10;101727.78;;;0.65;85.67
50550;BME280;36505;52.512;13.460;2023-01-26T08:03:37;101738.41;;;0.66;85.36
50550;BME280;36505;52.512;13.460;2023-01-26T08:06:02;101742.97;;;0.66;85.15
50550;BME280;36505;52.512;13.460;2023-01-26T08:08:28;101743.81;;;0.66;85.18
50550;BME280;36505;52.512;13.460;2023-01-26T08:10:58;101727.72;;;0.57;84.94
50550;BME280;36505;52.512;13.460;2023-01-26T08:13:25;101747.13;;;0.60;85.58
50550;BME280;36505;52.512;13.460;2023-01-26T08:15:50;101756.22;;;0.59;84.97
50550;BME280;36505;52.512;13.460;2023-01-26T08:18:16;101749.28;;;0.57;84.68
50550;BME280;36505;52.512;13.460;2023-01-26T08:20:48;101735.09;;;0.55;84.76
50550;BME280;36505;52.512;13.460;2023-01-26T08:23:14;101744.03;;;0.55;85.01
50550;BME280;36505;52.512;13.460;2023-01-26T08:25:39;101741.50;;;0.54;84.76
50550;BME280;36505;52.512;13.460;2023-01-26T08:28:04;101744.50;;;0.51;84.35
50550;BME280;36505;52.512;13.460;2023-01-26T08:30:30;101755.00;;;0.54;84.47
50550;BME280;36505;52.512;13.460;2023-01-26T08:32:55;101750.25;;;0.56;84.42
50550;BME280;36505;52.512;13.460;2023-01-26T08:35:20;101740.47;;;0.55;84.38
50550;BME280;36505;52.512;13.460;2023-01-26T08:37:46;101737.63;;;0.56;84.72
50550;BME280;36505;52.512;13.460;2023-01-26T08:40:11;101736.50;;;0.59;84.32
50550;BME280;36505;52.512;13.460;2023-01-26T08:42:37;101735.66;;;0.58;83.85
50550;BME280;36505;52.512;13.460;2023-01-26T08:45:02;101739.03;;;0.60;84.04
50550;BME280;36505;52.512;13.460;2023-01-26T08:47:28;101738.72;;;0.63;84.21
50550;BME280;36505;52.512;13.460;2023-01-26T08:49:53;101727.56;;;0.58;83.77
50550;BME280;36505;52.512;13.460;2023-01-26T08:52:18;101741.63;;;0.70;83.64
50550;BME280;36505;52.512;13.460;2023-01-26T08:54:45;101739.63;;;0.72;83.31
50550;BME280;36505;52.512;13.460;2023-01-26T08:57:11;101736.56;;;0.67;83.31
50550;BME280;36505;52.512;13.460;2023-01-26T08:59:36;101737.94;;;0.71;83.76
50550;BME280;36505;52.512;13.460;2023-01-26T09:02:02;101740.63;;;0.71;83.67
50550;BME280;36505;52.512;13.460;2023-01-26T09:04:27;101746.34;;;0.68;83.71
50550;BME280;36505;52.512;13.460;2023-01-26T09:06:53;101750.34;;;0.64;83.60
50550;BME280;36505;52.512;13.460;2023-01-26T09:09:18;101755.22;;;0.60;83.58
50550;BME280;36505;52.512;13.460;2023-01-26T09:11:43;101749.97;;;0.59;83.56
50550;BME280;36505;52.512;13.460;2023-01-26T09:14:09;101747.28;;;0.59;83.34
50550;BME280;36505;52.512;13.460;2023-01-26T09:16:34;101753.97;;;0.55;83.24
50550;BME280;36505;52.512;13.460;2023-01-26T09:19:00;101752.44;;;0.52;83.28
50550;BME280;36505;52.512;13.460;2023-01-26T09:21:25;101759.19;;;0.56;83.71
50550;BME280;36505;52.512;13.460;2023-01-26T09:23:50;101758.91;;;0.59;83.58
50550;BME280;36505;52.512;13.460;2023-01-26T09:26:16;101751.81;;;0.58;83.37
50550;BME280;36505;52.512;13.460;2023-01-26T09:28:41;101772.81;;;0.55;83.08
50550;BME280;36505;52.512;13.460;2023-01-26T09:31:09;101773.53;;;0.57;83.16
50550;BME280;36505;52.512;13.460;2023-01-26T09:33:35;101763.75;;;0.56;83.04
50550;BME280;36505;52.512;13.460;2023-01-26T09:36:09;101768.47;;;0.54;82.66
50550;BME280;36505;52.512;13.460;2023-01-26T09:38:35;101762.66;;;0.49;82.46
50550;BME280;36505;52.512;13.460;2023-01-26T09:52:22;101754.28;;;0.52;82.06
50550;BME280;36505;52.512;13.460;2023-01-26T09:54:52;101755.00;;;0.54;82.08
50550;BME280;36505;52.512;13.460;2023-01-26T09:57:24;101760.81;;;0.49;82.23
50550;BME280;36505;52.512;13.460;2023-01-26T10:05:39;101752.75;;;0.49;82.14
50550;BME280;36505;52.512;13.460;2023-01-26T10:08:11;101748.28;;;0.40;81.91
50550;BME280;36505;52.512;13.460;2023-01-26T10:10:43;101745.28;;;0.43;81.87
50550;BME280;36505;52.512;13.460;2023-01-26T10:13:12;101748.81;;;0.44;81.67
50550;BME280;36505;52.512;13.460;2023-01-26T10:15:40;101738.41;;;0.49;81.74
50550;BME280;36505;52.512;13.460;2023-01-26T10:18:16;101742.28;;;0.46;81.88
50550;BME280;36505;52.512;13.460;2023-01-26T10:20:46;101740.88;;;0.42;81.87
50550;BME280;36505;52.512;13.460;2023-01-26T10:23:30;101730.09;;;0.42;81.79
50550;BME280;36505;52.512;13.460;2023-01-26T10:26:12;101730.50;;;0.47;81.43
50550;BME280;36505;52.512;13.460;2023-01-26T10:28:38;101740.25;;;0.48;81.59
50550;BME280;36505;52.512;13.460;2023-01-26T10:31:11;101731.34;;;0.48;81.96
50550;BME280;36505;52.512;13.460;2023-01-26T10:33:49;101729.34;;;0.50;81.90
50550;BME280;36505;52.512;13.460;2023-01-26T10:36:15;101729.03;;;0.53;82.28
50550;BME280;36505;52.512;13.460;2023-01-26T10:38:42;101710.41;;;0.59;82.15
50550;BME280;36505;52.512;13.460;2023-01-26T10:43:42;101704.00;;;0.60;81.74
50550;BME280;36505;52.512;13.460;2023-01-26T10:46:31;101695.22;;;0.58;82.03
50550;BME280;36505;52.512;13.460;2023-01-26T10:51:35;101692.38;;;0.60;82.54
50550;BME280;36505;52.512;13.460;2023-01-26T10:54:26;101695.59;;;0.63;82.48
50550;BME280;36505;52.512;13.460;2023-01-26T10:57:01;101674.13;;;0.54;82.07
50550;BME280;36505;52.512;13.460;2023-01-26T10:59:37;101690.91;;;0.65;82.26
50550;BME280;36505;52.512;13.460;2023-01-26T11:04:36;101681.44;;;0.61;82.14
50550;BME280;36505;52.512;13.460;2023-01-26T11:07:27;101690.56;;;0.68;82.04
50550;BME280;36505;52.512;13.460;2023-01-26T11:09:54;101683.97;;;0.63;82.07
50550;BME280;36505;52.512;13.460;2023-01-26T11:12:20;101690.19;;;0.63;82.36
50550;BME280;36505;52.512;13.460;2023-01-26T11:15:00;101689.03;;;0.66;82.39
50550;BME280;36505;52.512;13.460;2023-01-26T11:17:32;101685.34;;;0.67;82.41
50550;BME280;36505;52.512;13.460;2023-01-26T11:20:15;101690.19;;;0.63;82.30
50550;BME280;36505;52.512;13.460;2023-01-26T11:31:06;101672.88;;;0.66;82.32
50550;BME280;36505;52.512;13.460;2023-01-26T11:33:49;101675.94;;;0.71;81.91
50550;BME280;36505;52.512;13.460;2023-01-26T11:39:27;101670.03;;;0.67;82.39
50550;BME280;36505;52.512;13.460;2023-01-26T11:42:09;101670.03;;;0.67;82.37
50550;BME280;36505;52.512;13.460;2023-01-26T11:50:25;101664.78;;;0.66;82.42
50550;BME280;36505;52.512;13.460;2023-01-26T11:53:01;101656.16;;;0.62;82.65
50550;BME280;36505;52.512;13.460;2023-01-26T11:58:48;101655.31;;;0.62;82.91
50550;BME280;36505;52.512;13.460;2023-01-26T12:01:41;101653.47;;;0.62;82.82
50550;BME280;36505;52.512;13.460;2023-01-26T12:04:13;101641.00;;;0.61;82.60
50550;BME280;36505;52.512;13.460;2023-01-26T12:06:44;101636.63;;;0.60;82.41
50550;BME280;36505;52.512;13.460;2023-01-26T12:09:21;101633.59;;;0.63;82.07
50550;BME280;36505;52.512;13.460;2023-01-26T12:11:56;101632.28;;;0.67;81.89
50550;BME280;36505;52.512;13.460;2023-01-26T12:14:28;101632.97;;;0.69;81.71
50550;BME280;36505;52.512;13.460;2023-01-26T12:17:19;101628.56;;;0.68;81.44
50550;BME280;36505;52.512;13.460;2023-01-26T12:22:46;101610.75;;;0.75;81.59
50550;BME280;36505;52.512;13.460;2023-01-26T12:25:34;101608.91;;;0.76;81.18
50550;BME280;36505;52.512;13.460;2023-01-26T12:28:24;101607.06;;;0.76;81.21
50550;BME280;36505;52.512;13.460;2023-01-26T12:31:05;101599.97;;;0.75;80.47
50550;BME280;36505;52.512;13.460;2023-01-26T12:33:33;101603.31;;;0.69;80.52
50550;BME280;36505;52.512;13.460;2023-01-26T12:36:48;101600.31;;;0.72;80.54
50550;BME280;36505;52.512;13.460;2023-01-26T12:39:12;101602.50;;;0.77;80.44
50550;BME280;36505;52.512;13.460;2023-01-26T12:42:24;101599.50;;;0.80;80.21
50550;BME280;36505;52.512;13.460;2023-01-26T12:44:58;101592.94;;;0.83;80.39
50550;BME280;36505;52.512;13.460;2023-01-26T12:47:49;101593.47;;;0.86;80.06
50550;BME280;36505;52.512;13.460;2023-01-26T12:53:35;101599.56;;;0.88;79.97
50550;BME280;36505;52.512;13.460;2023-01-26T12:56:27;101589.44;;;0.90;80.17
50550;BME280;36505;52.512;13.460;2023-01-26T12:58:56;101591.63;;;0.87;80.60
50550;BME280;36505;52.512;13.460;2023-01-26T13:01:24;101587.53;;;0.83;80.31
50550;BME280;36505;52.512;13.460;2023-01-26T13:03:56;101596.47;;;0.83;80.33
50550;BME280;36505;52.512;13.460;2023-01-26T13:06:24;101598.81;;;0.78;80.63
50550;BME280;36505;52.512;13.460;2023-01-26T13:19:53;101614.28;;;0.76;80.78
50550;BME280;36505;52.512;13.460;2023-01-26T13:24:57;101601.84;;;0.75;80.31
50550;BME280;36505;52.512;13.460;2023-01-26T13:35:14;101608.69;;;0.69;80.15
50550;BME280;36505;52.512;13.460;2023-01-26T13:38:02;101611.25;;;0.71;80.17
50550;BME280;36505;52.512;13.460;2023-01-26T13:40:36;101621.50;;;0.67;80.37
50550;BME280;36505;52.512;13.460;2023-01-26T13:43:09;101627.75;;;0.68;80.25
50550;BME280;36505;52.512;13.460;2023-01-26T13:45:55;101635.34;;;0.72;80.44
50550;BME280;36505;52.512;13.460;2023-01-26T13:48:41;101626.41;;;0.72;80.48
50550;BME280;36505;52.512;13.460;2023-01-26T13:51:21;101624.56;;;0.72;80.09
50550;BME280;36505;52.512;13.460;2023-01-26T13:53:52;101628.47;;;0.78;80.03
50550;BME280;36505;52.512;13.460;2023-01-26T13:58:46;101628.97;;;0.73;80.25
50550;BME280;36505;52.512;13.460;2023-01-26T14:01:13;101638.75;;;0.74;80.19
50550;BME280;36505;52.512;13.460;2023-01-26T14:03:39;101626.25;;;0.73;80.36
50550;BME280;36505;52.512;13.460;2023-01-26T14:06:16;101635.50;;;0.71;80.45
50550;BME280;36505;52.512;13.460;2023-01-26T14:08:54;101632.09;;;0.69;80.19
50550;BME280;36505;52.512;13.460;2023-01-26T14:11:25;101628.75;;;0.67;80.28
50550;BME280;36505;52.512;13.460;2023-01-26T14:13:55;101626.34;;;0.64;80.05
50550;BME280;36505;52.512;13.460;2023-01-26T14:16:29;101626.50;;;0.62;80.24
50550;BME280;36505;52.512;13.460;2023-01-26T14:24:13;101629.75;;;0.66;80.49
50550;BME280;36505;52.512;13.460;2023-01-26T14:26:39;101627.19;;;0.64;80.90
50550;BME280;36505;52.512;13.460;2023-01-26T14:29:19;101619.97;;;0.65;80.90
50550;BME280;36505;52.512;13.460;2023-01-26T14:31:46;101627.06;;;0.66;81.11